Time;durP1;ratioP1;P1;durP2;ratioP2;P2;SDS_P1;SDS_P2;PMS_P1;PMS_P2;Temp;Humidity;BMP_temperature;BMP_pressure;BME280_temperature;BME280_humidity;BME280_pressure;Samples;Min_cycle;Max_cycle;Signal;HPM_P1;HPM_P2
2022/04/05 00:00:29;;;;;;;29.75;3.70;;;;;;;;;;5082327;28;20131;-77
2022/04/05 00:02:55;;;;;;;29.65;3.55;;;;;;;;;;5063442;28;20032;-77
2022/04/05 00:05:21;;;;;;;30.17;3.58;;;;;;;;;;5076317;28;20087;-76
2022/04/05 00:07:47;;;;;;;24.73;3.35;;;;;;;;;;5067315;28;20031;-76
2022/04/05 00:10:13;;;;;;;22.17;3.47;;;;;;;;;;5065625;28;20167;-77
2022/04/05 00:12:40;;;;;;;30.50;3.30;;;;;;;;;;5086648;28;20052;-76
2022/04/05 00:15:06;;;;;;;25.05;4.18;;;;;;;;;;5079524;28;20016;-76
2022/04/05 00:17:32;;;;;;;25.65;2.97;;;;;;;;;;5069008;28;20301;-77
2022/04/05 00:19:58;;;;;;;28.55;3.38;;;;;;;;;;5086246;28;20036;-76
2022/04/05 00:22:23;;;;;;;31.05;3.20;;;;;;;;;;5067227;28;20016;-77
2022/04/05 00:24:50;;;;;;;26.27;3.35;;;;;;;;;;5074299;28;20029;-76
2022/04/05 00:27:16;;;;;;;34.75;4.22;;;;;;;;;;5082277;28;20028;-76
2022/04/05 00:29:41;;;;;;;26.23;3.15;;;;;;;;;;5047888;28;20184;-76
2022/04/05 00:32:08;;;;;;;31.98;3.03;;;;;;;;;;5095920;28;20026;-77
2022/04/05 00:34:34;;;;;;;20.45;2.90;;;;;;;;;;5087166;28;20340;-76
2022/04/05 00:37:00;;;;;;;31.15;3.55;;;;;;;;;;5093247;28;20087;-77
2022/04/05 00:39:26;;;;;;;25.55;3.00;;;;;;;;;;5081213;28;20162;-77
2022/04/05 00:41:53;;;;;;;22.05;4.00;;;;;;;;;;5090328;28;20024;-76
2022/04/05 00:44:19;;;;;;;23.17;3.28;;;;;;;;;;5077888;28;20023;-76
2022/04/05 00:46:45;;;;;;;32.58;3.95;;;;;;;;;;5084706;28;20020;-76
2022/04/05 00:49:15;;;;;;;28.25;3.97;;;;;;;;;;5064742;28;20267;-76
2022/04/05 00:51:41;;;;;;;24.73;3.95;;;;;;;;;;5078152;28;20016;-77
2022/04/05 00:54:09;;;;;;;25.50;5.03;;;;;;;;;;5079585;28;20019;-75
2022/04/05 00:56:36;;;;;;;24.95;3.17;;;;;;;;;;5079545;28;20008;-76
2022/04/05 00:59:03;;;;;;;21.15;3.60;;;;;;;;;;5079659;28;20024;-75
2022/04/05 01:01:30;;;;;;;29.00;3.92;;;;;;;;;;5092375;28;20036;-76
2022/04/05 01:03:56;;;;;;;26.02;4.45;;;;;;;;;;5082765;28;20088;-76
2022/04/05 01:06:30;;;;;;;30.33;4.00;;;;;;;;;;5084117;28;23102;-76
2022/04/05 01:08:56;;;;;;;28.58;4.35;;;;;;;;;;5087290;28;20046;-77
2022/04/05 01:11:22;;;;;;;29.45;3.95;;;;;;;;;;5076236;28;20160;-76
2022/04/05 01:13:48;;;;;;;30.73;4.00;;;;;;;;;;5095743;28;20066;-75
2022/04/05 01:16:14;;;;;;;30.65;3.30;;;;;;;;;;5070241;28;20040;-76
2022/04/05 01:18:40;;;;;;;23.27;4.18;;;;;;;;;;5079661;28;20326;-76
2022/04/05 01:21:06;;;;;;;26.58;3.55;;;;;;;;;;5074260;28;20028;-76
2022/04/05 01:23:31;;;;;;;28.88;3.78;;;;;;;;;;5077818;28;20016;-77
2022/04/05 01:25:57;;;;;;;40.47;4.72;;;;;;;;;;5079807;28;20259;-78
2022/04/05 01:28:26;;;;;;;30.35;3.72;;;;;;;;;;5080934;28;20091;-77
2022/04/05 01:30:52;;;;;;;27.48;3.70;;;;;;;;;;5083060;28;20409;-76
2022/04/05 01:33:18;;;;;;;31.77;3.88;;;;;;;;;;5081882;28;20028;-76
2022/04/05 01:35:45;;;;;;;21.42;3.83;;;;;;;;;;5076264;28;20021;-76
2022/04/05 01:38:11;;;;;;;14.52;2.88;;;;;;;;;;5078307;28;24400;-77
2022/04/05 01:40:38;;;;;;;24.67;3.63;;;;;;;;;;5080216;28;20300;-77
2022/04/05 01:43:04;;;;;;;28.23;3.85;;;;;;;;;;5078651;28;20016;-76
2022/04/05 01:45:30;;;;;;;34.42;4.30;;;;;;;;;;5080095;28;20008;-76
2022/04/05 01:47:56;;;;;;;22.25;3.72;;;;;;;;;;5079498;28;20152;-76
2022/04/05 01:50:21;;;;;;;29.30;4.90;;;;;;;;;;5075468;28;20032;-77
2022/04/05 01:52:47;;;;;;;31.20;4.15;;;;;;;;;;5075804;28;20012;-76
2022/04/05 01:55:12;;;;;;;24.20;5.45;;;;;;;;;;5065573;28;20028;-75
2022/04/05 01:57:38;;;;;;;24.15;3.53;;;;;;;;;;5062363;28;20241;-76
2022/04/05 02:00:06;;;;;;;23.23;3.20;;;;;;;;;;5078271;28;20104;-76
2022/04/05 02:02:31;;;;;;;28.98;3.78;;;;;;;;;;5079241;28;20031;-77
2022/04/05 02:04:57;;;;;;;23.35;2.70;;;;;;;;;;5080966;28;20012;-77
2022/04/05 02:07:23;;;;;;;25.55;4.05;;;;;;;;;;5078838;28;20012;-77
2022/04/05 02:09:49;;;;;;;26.48;3.50;;;;;;;;;;5079032;28;20263;-76
2022/04/05 02:12:18;;;;;;;21.50;3.00;;;;;;;;;;5067506;28;20267;-76
2022/04/05 02:14:44;;;;;;;27.08;3.78;;;;;;;;;;5073682;28;20104;-76
2022/04/05 02:17:11;;;;;;;15.45;3.03;;;;;;;;;;5085882;28;20331;-77
2022/04/05 02:19:38;;;;;;;28.27;2.95;;;;;;;;;;5078802;28;20029;-76
2022/04/05 02:22:04;;;;;;;25.42;4.03;;;;;;;;;;5078917;28;20042;-77
2022/04/05 02:24:30;;;;;;;18.73;3.22;;;;;;;;;;5079350;28;20265;-76
2022/04/05 02:26:55;;;;;;;40.15;4.43;;;;;;;;;;5078339;28;20088;-78
2022/04/05 02:29:21;;;;;;;20.95;2.90;;;;;;;;;;5059618;28;20055;-75
2022/04/05 02:31:46;;;;;;;17.70;2.88;;;;;;;;;;5065772;28;20031;-76
2022/04/05 02:34:12;;;;;;;24.52;3.25;;;;;;;;;;5070419;28;20020;-76
2022/04/05 02:36:38;;;;;;;32.58;2.90;;;;;;;;;;5074618;28;20020;-77
2022/04/05 02:39:05;;;;;;;24.65;2.50;;;;;;;;;;5062824;28;20260;-76
2022/04/05 02:41:30;;;;;;;13.07;2.30;;;;;;;;;;5078774;28;20086;-76
2022/04/05 02:43:56;;;;;;;18.05;3.53;;;;;;;;;;5079163;28;20020;-76
2022/04/05 02:46:22;;;;;;;18.85;2.88;;;;;;;;;;5079293;28;20039;-76
2022/04/05 02:48:48;;;;;;;16.00;2.83;;;;;;;;;;5080730;28;20023;-77
2022/04/05 02:51:15;;;;;;;19.58;2.30;;;;;;;;;;5059681;28;20040;-75
2022/04/05 02:53:41;;;;;;;26.63;2.88;;;;;;;;;;5078216;28;20065;-76
2022/04/05 02:56:07;;;;;;;16.30;2.63;;;;;;;;;;5064184;28;20020;-76
2022/04/05 02:58:37;;;;;;;25.60;3.08;;;;;;;;;;5075983;28;20268;-76
2022/04/05 03:01:04;;;;;;;27.20;4.55;;;;;;;;;;5075311;28;20021;-76
2022/04/05 03:03:30;;;;;;;25.10;2.42;;;;;;;;;;5063288;28;20016;-76
2022/04/05 03:05:55;;;;;;;24.52;3.03;;;;;;;;;;5081133;28;20023;-77
2022/04/05 03:08:22;;;;;;;13.40;2.10;;;;;;;;;;5078615;28;20127;-76
2022/04/05 03:10:49;;;;;;;24.45;2.75;;;;;;;;;;5063390;28;20058;-76
2022/04/05 03:13:14;;;;;;;18.20;2.72;;;;;;;;;;5075050;28;20146;-76
2022/04/05 03:15:40;;;;;;;23.02;3.00;;;;;;;;;;5062275;28;20028;-76
2022/04/05 03:18:06;;;;;;;14.98;2.22;;;;;;;;;;5082558;28;20023;-76
2022/04/05 03:20:32;;;;;;;9.82;1.88;;;;;;;;;;5055886;28;20207;-76
2022/04/05 03:23:00;;;;;;;15.50;1.98;;;;;;;;;;5079301;28;20013;-76
2022/04/05 03:25:27;;;;;;;16.38;2.67;;;;;;;;;;5076051;28;20287;-77
2022/04/05 03:27:53;;;;;;;14.43;2.15;;;;;;;;;;5080463;28;20130;-76
2022/04/05 03:30:20;;;;;;;18.73;2.40;;;;;;;;;;5094345;28;20017;-76
2022/04/05 03:32:46;;;;;;;21.15;2.45;;;;;;;;;;5078599;28;20277;-76
2022/04/05 03:35:11;;;;;;;21.63;2.88;;;;;;;;;;5081577;28;20059;-76
2022/04/05 03:37:37;;;;;;;24.00;2.45;;;;;;;;;;5074107;28;20024;-76
2022/04/05 03:40:05;;;;;;;17.00;2.28;;;;;;;;;;5076013;28;20039;-76
2022/04/05 03:42:30;;;;;;;11.05;2.08;;;;;;;;;;5073101;28;20028;-76
2022/04/05 03:44:56;;;;;;;22.10;2.45;;;;;;;;;;5081272;28;20024;-77
2022/04/05 03:47:22;;;;;;;25.35;3.00;;;;;;;;;;5083561;28;20070;-75
2022/04/05 03:49:47;;;;;;;21.33;2.88;;;;;;;;;;5081593;28;20020;-76
2022/04/05 03:52:13;;;;;;;21.48;2.17;;;;;;;;;;5062465;28;20091;-75
2022/04/05 03:54:39;;;;;;;20.48;2.17;;;;;;;;;;5079770;28;20036;-73
2022/04/05 03:57:04;;;;;;;22.48;3.00;;;;;;;;;;5081924;28;20021;-75
2022/04/05 03:59:30;;;;;;;22.85;3.13;;;;;;;;;;5081000;28;20020;-76
2022/04/05 04:01:56;;;;;;;21.45;2.55;;;;;;;;;;5081730;28;20149;-75
2022/04/05 04:04:21;;;;;;;13.20;2.17;;;;;;;;;;5081314;28;20055;-76
2022/04/05 04:06:47;;;;;;;20.77;3.80;;;;;;;;;;5081402;28;20031;-75
2022/04/05 04:09:12;;;;;;;20.75;3.28;;;;;;;;;;5065945;28;20332;-75
2022/04/05 04:11:40;;;;;;;14.25;2.22;;;;;;;;;;5083023;28;20036;-75
2022/04/05 04:14:07;;;;;;;13.63;2.58;;;;;;;;;;5078889;28;20029;-76
2022/04/05 04:16:33;;;;;;;20.13;2.63;;;;;;;;;;5079711;28;20228;-75
2022/04/05 04:18:59;;;;;;;17.20;3.25;;;;;;;;;;5079371;28;20040;-74
2022/04/05 04:21:24;;;;;;;26.83;3.25;;;;;;;;;;5069606;28;20027;-75
2022/04/05 04:23:50;;;;;;;25.80;2.63;;;;;;;;;;5073767;28;20017;-75
2022/04/05 04:26:15;;;;;;;17.27;2.10;;;;;;;;;;5078027;28;20048;-75
2022/04/05 04:28:41;;;;;;;27.92;1.95;;;;;;;;;;5078918;28;20074;-74
2022/04/05 04:31:06;;;;;;;24.52;2.72;;;;;;;;;;5077968;28;20081;-75
2022/04/05 04:33:32;;;;;;;22.50;2.55;;;;;;;;;;5062072;28;23137;-76
2022/04/05 04:35:58;;;;;;;23.45;3.03;;;;;;;;;;5069783;28;20027;-76
2022/04/05 04:38:24;;;;;;;19.80;2.72;;;;;;;;;;5081509;28;20023;-75
2022/04/05 04:40:53;;;;;;;11.73;2.13;;;;;;;;;;5097535;28;20029;-75
2022/04/05 04:43:19;;;;;;;26.27;3.58;;;;;;;;;;5079041;28;20096;-76
2022/04/05 04:45:45;;;;;;;25.70;3.10;;;;;;;;;;5078610;28;20052;-76
2022/04/05 04:48:12;;;;;;;19.08;3.15;;;;;;;;;;5062241;28;20016;-76
2022/04/05 04:50:37;;;;;;;24.58;2.42;;;;;;;;;;5058509;28;20016;-75
2022/04/05 04:53:03;;;;;;;25.23;3.08;;;;;;;;;;5080535;28;20397;-77
2022/04/05 04:55:29;;;;;;;29.85;3.03;;;;;;;;;;5049294;28;20023;-76
2022/04/05 04:57:56;;;;;;;20.35;2.72;;;;;;;;;;5076270;28;20035;-75
2022/04/05 05:00:21;;;;;;;22.88;3.22;;;;;;;;;;5079885;28;20066;-74
2022/04/05 05:02:48;;;;;;;23.25;2.20;;;;;;;;;;5086657;28;20267;-79
2022/04/05 05:05:21;;;;;;;26.08;2.42;;;;;;;;;;5074493;28;20017;-80
2022/04/05 05:07:48;;;;;;;29.77;2.17;;;;;;;;;;5079670;28;20012;-80
2022/04/05 05:10:15;;;;;;;13.68;2.08;;;;;;;;;;5081494;28;20005;-80
2022/04/05 05:12:41;;;;;;;24.98;3.63;;;;;;;;;;5082662;28;20160;-81
2022/04/05 05:15:08;;;;;;;17.30;2.75;;;;;;;;;;5078717;28;20044;-80
2022/04/05 05:17:35;;;;;;;12.90;2.47;;;;;;;;;;5065347;28;20051;-81
2022/04/05 05:20:02;;;;;;;23.55;2.45;;;;;;;;;;5077876;28;20032;-80
2022/04/05 05:22:28;;;;;;;10.90;1.58;;;;;;;;;;5063636;28;20139;-81
2022/04/05 05:24:53;;;;;;;22.23;2.95;;;;;;;;;;5077971;28;20040;-80
2022/04/05 05:27:19;;;;;;;16.67;1.73;;;;;;;;;;5082255;28;20019;-81
2022/04/05 05:29:44;;;;;;;14.07;2.03;;;;;;;;;;5069393;28;20020;-81
2022/04/05 05:32:10;;;;;;;13.57;1.65;;;;;;;;;;5079533;28;20036;-81
2022/04/05 05:34:35;;;;;;;10.27;2.03;;;;;;;;;;5078362;28;20028;-80
2022/04/05 05:37:02;;;;;;;21.40;3.15;;;;;;;;;;5050209;28;20016;-81
2022/04/05 05:39:28;;;;;;;12.60;1.83;;;;;;;;;;5073287;28;20017;-80
2022/04/05 05:41:54;;;;;;;17.15;1.48;;;;;;;;;;5079979;28;20031;-80
2022/04/05 05:44:20;;;;;;;16.73;1.70;;;;;;;;;;5077036;28;20020;-80
2022/04/05 05:46:46;;;;;;;22.02;2.65;;;;;;;;;;5081808;28;20023;-81
2022/04/05 05:49:12;;;;;;;16.55;1.60;;;;;;;;;;5085988;28;20167;-80
2022/04/05 05:51:37;;;;;;;16.95;1.45;;;;;;;;;;5067934;28;20013;-80
2022/04/05 05:54:04;;;;;;;15.52;1.50;;;;;;;;;;5043247;28;20190;-81
2022/04/05 05:56:30;;;;;;;14.77;2.20;;;;;;;;;;5080269;28;20077;-80
2022/04/05 05:58:55;;;;;;;16.95;1.60;;;;;;;;;;5079810;28;20025;-80
2022/04/05 06:01:23;;;;;;;18.42;1.52;;;;;;;;;;5075430;28;20112;-81
2022/04/05 06:03:48;;;;;;;13.45;1.95;;;;;;;;;;5080950;28;20032;-80
2022/04/05 06:06:14;;;;;;;15.15;1.73;;;;;;;;;;5081046;28;20117;-81
2022/04/05 06:08:40;;;;;;;14.75;1.40;;;;;;;;;;5084826;28;20111;-79
2022/04/05 06:11:07;;;;;;;11.18;1.50;;;;;;;;;;5084347;28;20109;-82
2022/04/05 06:13:33;;;;;;;16.90;2.42;;;;;;;;;;5086040;28;20039;-81
2022/04/05 06:16:01;;;;;;;14.23;1.20;;;;;;;;;;5084951;28;20060;-79
2022/04/05 06:18:27;;;;;;;9.95;1.52;;;;;;;;;;5063120;28;20027;-79
2022/04/05 06:20:52;;;;;;;19.15;2.88;;;;;;;;;;5081348;28;20020;-79
2022/04/05 06:23:18;;;;;;;21.58;2.13;;;;;;;;;;5057300;28;20017;-80
2022/04/05 06:25:43;;;;;;;15.85;2.60;;;;;;;;;;5080107;28;20020;-81
2022/04/05 06:28:09;;;;;;;16.38;1.65;;;;;;;;;;5080776;28;20040;-80
2022/04/05 06:30:37;;;;;;;19.10;1.60;;;;;;;;;;5047169;28;20016;-79
2022/04/05 06:33:04;;;;;;;9.07;1.35;;;;;;;;;;5081344;28;20020;-80
2022/04/05 06:35:29;;;;;;;19.25;1.40;;;;;;;;;;5078916;28;20012;-80
2022/04/05 06:37:55;;;;;;;24.83;1.50;;;;;;;;;;5059538;28;20059;-79
2022/04/05 06:40:20;;;;;;;10.55;1.58;;;;;;;;;;5058404;28;20051;-79
2022/04/05 06:42:46;;;;;;;16.50;2.22;;;;;;;;;;5078350;28;20239;-78
2022/04/05 06:45:15;;;;;;;13.38;2.35;;;;;;;;;;5062609;28;20039;-78
2022/04/05 06:47:41;;;;;;;12.32;1.63;;;;;;;;;;5078816;28;20024;-78
2022/04/05 06:50:08;;;;;;;14.88;1.80;;;;;;;;;;5070366;28;20044;-79
2022/04/05 06:52:38;;;;;;;15.73;1.52;;;;;;;;;;5071298;28;20069;-78
2022/04/05 06:55:05;;;;;;;9.10;1.33;;;;;;;;;;5080906;28;20030;-78
2022/04/05 06:57:31;;;;;;;12.80;1.40;;;;;;;;;;5078359;28;20087;-79
2022/04/05 06:59:57;;;;;;;12.95;1.40;;;;;;;;;;5074952;28;20012;-79
2022/04/05 07:02:22;;;;;;;24.48;1.75;;;;;;;;;;5063560;28;20031;-79
2022/04/05 07:04:48;;;;;;;12.10;2.40;;;;;;;;;;5060109;28;20271;-79
2022/04/05 07:07:14;;;;;;;15.43;1.83;;;;;;;;;;5076864;28;20042;-79
2022/04/05 07:09:39;;;;;;;12.88;1.55;;;;;;;;;;5079782;28;20051;-79
2022/04/05 07:12:07;;;;;;;16.42;1.80;;;;;;;;;;5049686;28;20040;-80
2022/04/05 07:14:33;;;;;;;14.18;1.40;;;;;;;;;;5089223;28;20051;-79
2022/04/05 07:16:59;;;;;;;21.95;1.30;;;;;;;;;;5065650;28;20012;-78
2022/04/05 07:19:24;;;;;;;11.55;1.17;;;;;;;;;;5077455;28;20055;-79
2022/04/05 07:21:50;;;;;;;13.48;2.25;;;;;;;;;;5059672;28;20172;-79
2022/04/05 07:24:16;;;;;;;14.45;1.88;;;;;;;;;;5079770;28;20023;-79
2022/04/05 07:26:42;;;;;;;12.30;1.65;;;;;;;;;;5082901;28;20032;-80
2022/04/05 07:29:07;;;;;;;15.75;1.20;;;;;;;;;;5086314;28;20022;-82
2022/04/05 07:31:33;;;;;;;13.85;1.52;;;;;;;;;;5083838;28;20075;-83
2022/04/05 07:33:58;;;;;;;6.43;1.35;;;;;;;;;;5083578;28;20021;-78
2022/04/05 07:36:24;;;;;;;3.88;0.90;;;;;;;;;;5070330;28;20017;-79
2022/04/05 07:38:49;;;;;;;9.27;1.02;;;;;;;;;;5081319;28;20284;-80
2022/04/05 07:41:15;;;;;;;10.02;1.02;;;;;;;;;;5064924;28;20020;-80
2022/04/05 07:43:40;;;;;;;7.78;1.17;;;;;;;;;;5066468;28;20055;-80
2022/04/05 07:46:06;;;;;;;16.00;1.17;;;;;;;;;;5050315;28;20138;-79
2022/04/05 07:48:31;;;;;;;6.25;1.17;;;;;;;;;;5082141;28;20020;-79
2022/04/05 07:50:57;;;;;;;7.20;1.55;;;;;;;;;;5079671;28;20345;-79
2022/04/05 07:53:23;;;;;;;15.20;1.90;;;;;;;;;;5081049;28;20024;-80
2022/04/05 07:55:48;;;;;;;6.07;1.08;;;;;;;;;;5069867;28;20322;-79
2022/04/05 07:58:14;;;;;;;11.35;1.20;;;;;;;;;;5065307;28;20017;-80
2022/04/05 08:00:40;;;;;;;12.48;1.25;;;;;;;;;;5081569;28;20017;-80
2022/04/05 08:03:05;;;;;;;10.77;1.13;;;;;;;;;;5061670;28;20558;-80
2022/04/05 08:05:31;;;;;;;13.13;1.50;;;;;;;;;;5082776;28;20025;-80
2022/04/05 08:07:56;;;;;;;8.15;0.75;;;;;;;;;;5073183;28;20017;-79
2022/04/05 08:10:22;;;;;;;16.77;1.02;;;;;;;;;;5069164;28;20043;-80
2022/04/05 08:12:50;;;;;;;14.02;0.75;;;;;;;;;;5081347;28;20028;-80
2022/04/05 08:15:20;;;;;;;6.57;0.85;;;;;;;;;;5065615;28;20016;-78
2022/04/05 08:17:46;;;;;;;17.48;1.23;;;;;;;;;;5080896;28;20020;-82
2022/04/05 08:20:13;;;;;;;16.33;1.08;;;;;;;;;;5085260;28;20247;-81
2022/04/05 08:22:38;;;;;;;12.32;1.42;;;;;;;;;;5081307;28;20023;-78
2022/04/05 08:25:05;;;;;;;5.05;0.75;;;;;;;;;;5087325;28;20028;-80
2022/04/05 08:27:30;;;;;;;15.00;1.50;;;;;;;;;;5065958;28;20164;-79
2022/04/05 08:29:56;;;;;;;4.72;0.73;;;;;;;;;;5098326;28;20019;-79
2022/04/05 08:32:22;;;;;;;9.60;0.95;;;;;;;;;;5079142;28;20041;-79
2022/04/05 08:34:47;;;;;;;5.90;1.50;;;;;;;;;;5087369;28;20035;-79
2022/04/05 08:37:13;;;;;;;8.50;1.67;;;;;;;;;;5073561;28;20298;-79
2022/04/05 08:39:40;;;;;;;8.52;1.17;;;;;;;;;;5073611;28;20052;-80
2022/04/05 08:42:07;;;;;;;13.65;1.55;;;;;;;;;;5078820;28;20160;-79
2022/04/05 08:44:33;;;;;;;9.45;1.15;;;;;;;;;;5081731;28;20381;-80
2022/04/05 08:47:03;;;;;;;10.43;1.30;;;;;;;;;;5080233;28;20017;-79
2022/04/05 08:49:30;;;;;;;12.63;2.28;;;;;;;;;;5082022;28;20028;-80
2022/04/05 08:51:57;;;;;;;8.70;1.33;;;;;;;;;;5079014;28;20039;-80
2022/04/05 08:54:23;;;;;;;11.02;1.70;;;;;;;;;;5102272;28;20012;-80
2022/04/05 08:56:50;;;;;;;7.25;1.20;;;;;;;;;;5082842;28;20012;-80
2022/04/05 08:59:16;;;;;;;5.28;1.50;;;;;;;;;;5088019;28;20027;-81
2022/04/05 09:01:42;;;;;;;4.35;0.90;;;;;;;;;;5088007;28;20086;-79
2022/04/05 09:04:10;;;;;;;12.40;2.05;;;;;;;;;;5079433;28;20024;-79
2022/04/05 09:06:36;;;;;;;5.18;1.00;;;;;;;;;;5071683;28;20019;-80
2022/04/05 09:09:19;;;;;;;8.50;1.05;;;;;;;;;;5082096;28;20020;-79
2022/04/05 09:11:46;;;;;;;11.80;1.75;;;;;;;;;;5082283;28;20198;-80
2022/04/05 09:14:13;;;;;;;7.30;1.10;;;;;;;;;;5082342;28;20028;-79
2022/04/05 09:16:39;;;;;;;13.27;1.23;;;;;;;;;;5080661;28;20040;-82
2022/04/05 09:19:15;;;;;;;12.55;1.40;;;;;;;;;;5080711;28;20303;-79
2022/04/05 09:21:56;;;;;;;10.73;1.40;;;;;;;;;;5065001;28;20028;-80
2022/04/05 09:24:35;;;;;;;2.95;0.73;;;;;;;;;;5081740;28;20020;-80
2022/04/05 09:27:01;;;;;;;12.32;1.05;;;;;;;;;;5062575;28;20021;-81
2022/04/05 09:29:44;;;;;;;12.88;1.35;;;;;;;;;;5082026;28;20012;-79
2022/04/05 09:32:11;;;;;;;13.10;1.00;;;;;;;;;;5081525;28;20016;-80
2022/04/05 09:34:50;;;;;;;13.13;1.95;;;;;;;;;;5098297;28;20025;-80
2022/04/05 09:37:16;;;;;;;4.82;0.88;;;;;;;;;;5075864;28;20014;-80
2022/04/05 09:39:43;;;;;;;6.22;1.30;;;;;;;;;;5076721;28;20099;-80
2022/04/05 09:42:09;;;;;;;13.13;1.75;;;;;;;;;;5082079;28;20348;-80
2022/04/05 09:44:37;;;;;;;6.45;1.30;;;;;;;;;;5075930;28;20334;-80
2022/04/05 09:47:03;;;;;;;8.93;1.35;;;;;;;;;;5085037;28;20056;-80
2022/04/05 09:49:34;;;;;;;13.63;2.53;;;;;;;;;;5080246;28;20148;-79
2022/04/05 09:52:00;;;;;;;14.90;1.97;;;;;;;;;;5078313;28;20016;-80
2022/04/05 09:54:28;;;;;;;13.88;1.95;;;;;;;;;;5066371;28;20067;-79
2022/04/05 09:57:07;;;;;;;9.27;1.80;;;;;;;;;;5082641;28;20019;-80
2022/04/05 09:59:43;;;;;;;10.50;1.45;;;;;;;;;;5085270;28;20019;-80
2022/04/05 10:02:16;;;;;;;9.57;1.70;;;;;;;;;;5082132;28;20036;-80
2022/04/05 10:05:09;;;;;;;14.45;1.70;;;;;;;;;;5080781;28;20036;-80
2022/04/05 10:07:36;;;;;;;7.03;1.48;;;;;;;;;;5083858;28;20175;-79
2022/04/05 10:10:04;;;;;;;12.10;2.05;;;;;;;;;;5084217;28;20031;-80
2022/04/05 10:12:31;;;;;;;9.82;0.98;;;;;;;;;;5080215;28;20028;-79
2022/04/05 10:14:57;;;;;;;6.25;1.10;;;;;;;;;;5072980;28;20199;-80
2022/04/05 10:17:26;;;;;;;8.70;0.88;;;;;;;;;;5080676;28;20035;-79
2022/04/05 10:19:53;;;;;;;2.47;0.88;;;;;;;;;;5081586;28;20044;-80
2022/04/05 10:22:20;;;;;;;6.63;0.98;;;;;;;;;;5082704;28;20088;-80
2022/04/05 10:24:49;;;;;;;13.18;1.45;;;;;;;;;;5081770;28;20020;-81
2022/04/05 10:27:16;;;;;;;7.57;0.93;;;;;;;;;;5079468;28;20020;-81
2022/04/05 10:29:44;;;;;;;11.60;1.00;;;;;;;;;;5082178;28;20329;-80
2022/04/05 10:32:30;;;;;;;10.10;1.50;;;;;;;;;;5080654;28;20062;-79
2022/04/05 10:35:06;;;;;;;10.45;1.17;;;;;;;;;;5081389;28;20016;-79
2022/04/05 10:37:37;;;;;;;7.15;1.13;;;;;;;;;;5080158;28;20028;-80
2022/04/05 10:40:02;;;;;;;11.20;1.58;;;;;;;;;;5076031;28;20440;-79
2022/04/05 10:42:46;;;;;;;11.30;1.13;;;;;;;;;;5079133;28;20078;-80
2022/04/05 10:45:29;;;;;;;7.70;1.25;;;;;;;;;;5079731;28;20228;-79
2022/04/05 10:48:18;;;;;;;6.82;1.00;;;;;;;;;;5078577;28;20239;-79
2022/04/05 10:50:59;;;;;;;5.47;0.75;;;;;;;;;;5077076;28;20285;-80
2022/04/05 10:54:17;;;;;;;11.17;0.90;;;;;;;;;;5081002;28;20016;-79
2022/04/05 10:56:28;;;;;;;5.13;1.13;;;;;;;;;;5084109;28;20507;-80
2022/04/05 10:58:54;;;;;;;11.18;1.17;;;;;;;;;;5086361;28;20016;-80
2022/04/05 11:01:23;;;;;;;6.18;0.90;;;;;;;;;;5081917;28;20020;-81
2022/04/05 11:04:17;;;;;;;12.93;1.48;;;;;;;;;;5085068;28;20044;-79
2022/04/05 11:07:01;;;;;;;10.82;1.15;;;;;;;;;;5083286;28;20008;-80
2022/04/05 11:09:28;;;;;;;6.53;1.05;;;;;;;;;;5075139;28;20017;-81
2022/04/05 11:11:55;;;;;;;8.80;2.13;;;;;;;;;;5081148;28;20025;-80
2022/04/05 11:14:45;;;;;;;12.23;1.20;;;;;;;;;;5074397;28;20068;-80
2022/04/05 11:17:14;;;;;;;12.05;1.00;;;;;;;;;;5071976;28;20020;-79
2022/04/05 11:19:42;;;;;;;14.43;1.63;;;;;;;;;;5064527;28;20041;-81
2022/04/05 11:22:20;;;;;;;14.20;1.25;;;;;;;;;;5083623;28;20282;-79
2022/04/05 11:25:04;;;;;;;6.43;0.80;;;;;;;;;;5086603;28;20510;-78
2022/04/05 11:27:49;;;;;;;7.28;1.15;;;;;;;;;;5082422;28;20031;-75
2022/04/05 11:30:25;;;;;;;11.65;1.33;;;;;;;;;;5085807;28;20035;-75
2022/04/05 11:33:06;;;;;;;15.98;1.75;;;;;;;;;;5082023;28;20210;-75
2022/04/05 11:35:40;;;;;;;12.07;1.20;;;;;;;;;;5078426;28;20008;-76
2022/04/05 11:38:11;;;;;;;5.32;0.85;;;;;;;;;;5081005;28;20210;-76
2022/04/05 11:40:41;;;;;;;17.20;1.03;;;;;;;;;;5085994;28;20028;-76
2022/04/05 11:43:17;;;;;;;17.25;1.13;;;;;;;;;;5078766;28;20020;-75
2022/04/05 11:45:45;;;;;;;8.30;1.27;;;;;;;;;;5084497;28;20103;-75
2022/04/05 11:48:16;;;;;;;27.35;2.90;;;;;;;;;;5080395;28;20044;-76
2022/04/05 11:50:42;;;;;;;9.93;1.35;;;;;;;;;;5095460;28;20016;-76
2022/04/05 11:53:28;;;;;;;8.30;1.15;;;;;;;;;;5060561;28;20028;-75
2022/04/05 11:56:14;;;;;;;4.78;1.00;;;;;;;;;;5074246;28;20019;-76
2022/04/05 11:58:42;;;;;;;18.70;2.03;;;;;;;;;;5079533;28;20043;-77
2022/04/05 12:01:10;;;;;;;16.45;1.08;;;;;;;;;;5076639;28;20115;-74
2022/04/05 12:03:45;;;;;;;11.18;0.90;;;;;;;;;;5080122;28;20035;-76
2022/04/05 12:06:12;;;;;;;9.50;1.15;;;;;;;;;;5080813;28;20012;-76
2022/04/05 12:08:38;;;;;;;10.70;1.10;;;;;;;;;;5078799;28;20084;-76
2022/04/05 12:11:06;;;;;;;8.05;0.80;;;;;;;;;;5081328;28;20206;-76
2022/04/05 12:13:34;;;;;;;12.73;1.20;;;;;;;;;;5087623;28;20089;-77
2022/04/05 12:16:02;;;;;;;9.15;1.63;;;;;;;;;;5083225;28;20017;-76
2022/04/05 12:18:28;;;;;;;5.90;0.70;;;;;;;;;;5082550;28;20058;-77
2022/04/05 12:21:02;;;;;;;4.22;0.70;;;;;;;;;;5083462;28;20091;-75
2022/04/05 12:23:39;;;;;;;20.38;1.33;;;;;;;;;;5080741;28;20024;-77
2022/04/05 12:26:05;;;;;;;11.07;1.40;;;;;;;;;;5098460;28;20020;-76
2022/04/05 12:28:32;;;;;;;7.43;1.25;;;;;;;;;;5081553;28;20091;-76
2022/04/05 12:31:05;;;;;;;11.48;1.23;;;;;;;;;;5067001;28;20024;-76
2022/04/05 12:33:31;;;;;;;15.10;1.15;;;;;;;;;;5085270;28;20339;-76
2022/04/05 12:35:57;;;;;;;11.35;1.27;;;;;;;;;;5066410;28;20028;-76
2022/04/05 12:38:23;;;;;;;9.25;1.15;;;;;;;;;;5083043;28;20021;-76
2022/04/05 12:40:49;;;;;;;13.02;1.20;;;;;;;;;;5085934;28;20023;-75
2022/04/05 12:43:19;;;;;;;6.90;1.02;;;;;;;;;;5082486;28;20020;-75
2022/04/05 12:45:46;;;;;;;10.52;1.48;;;;;;;;;;5083794;28;20252;-76
2022/04/05 12:48:17;;;;;;;10.02;0.70;;;;;;;;;;5065068;28;20114;-76
2022/04/05 12:50:49;;;;;;;10.85;1.13;;;;;;;;;;5083442;28;20020;-75
2022/04/05 12:53:22;;;;;;;;;;;;;;;;;;5080975;28;20096;-76
2022/04/05 12:56:08;;;;;;;16.70;1.30;;;;;;;;;;5075995;28;19964;-75
2022/04/05 12:58:39;;;;;;;8.93;1.40;;;;;;;;;;5097129;28;20028;-74
2022/04/05 13:01:28;;;;;;;6.30;0.68;;;;;;;;;;5080909;28;20101;-74
2022/04/05 13:04:02;;;;;;;6.65;0.85;;;;;;;;;;5085487;28;20016;-74
2022/04/05 13:06:29;;;;;;;12.23;1.33;;;;;;;;;;5090715;28;20012;-74
2022/04/05 13:09:06;;;;;;;11.85;1.73;;;;;;;;;;5087437;28;20028;-73
2022/04/05 13:11:33;;;;;;;15.15;1.42;;;;;;;;;;5082439;28;20005;-75
2022/04/05 13:14:12;;;;;;;7.07;1.00;;;;;;;;;;5065605;28;20051;-74
2022/04/05 13:16:38;;;;;;;7.25;0.57;;;;;;;;;;5099274;28;20091;-74
2022/04/05 13:19:24;;;;;;;3.08;0.50;;;;;;;;;;5089657;28;20036;-75
2022/04/05 13:21:52;;;;;;;4.35;0.55;;;;;;;;;;5081523;28;20194;-75
2022/04/05 13:24:19;;;;;;;8.73;0.60;;;;;;;;;;5085628;28;20021;-75
2022/04/05 13:26:51;;;;;;;9.05;0.80;;;;;;;;;;5083738;28;20012;-76
2022/04/05 13:29:23;;;;;;;8.63;1.58;;;;;;;;;;5087327;28;20020;-77
2022/04/05 13:31:50;;;;;;;6.15;0.93;;;;;;;;;;5098211;28;20021;-75
2022/04/05 13:34:19;;;;;;;3.08;0.75;;;;;;;;;;5084652;28;20019;-75
2022/04/05 13:36:45;;;;;;;6.32;0.40;;;;;;;;;;5081787;28;20021;-76
2022/04/05 13:39:12;;;;;;;5.57;0.40;;;;;;;;;;5082892;28;20066;-77
2022/04/05 13:41:38;;;;;;;3.75;0.40;;;;;;;;;;5082673;28;20336;-75
2022/04/05 13:44:05;;;;;;;6.45;0.50;;;;;;;;;;5081983;28;20058;-75
2022/04/05 13:46:34;;;;;;;6.85;0.60;;;;;;;;;;5076151;28;20032;-75
2022/04/05 13:49:01;;;;;;;7.10;0.80;;;;;;;;;;5080997;28;20028;-75
2022/04/05 13:51:27;;;;;;;7.32;1.05;;;;;;;;;;5081915;28;20008;-75
2022/04/05 13:53:52;;;;;;;4.97;0.57;;;;;;;;;;5081334;28;20035;-75
2022/04/05 13:56:18;;;;;;;5.85;1.13;;;;;;;;;;5082027;28;20040;-75
2022/04/05 13:58:44;;;;;;;7.65;0.75;;;;;;;;;;5082045;28;20263;-74
2022/04/05 14:01:09;;;;;;;6.00;0.65;;;;;;;;;;5085526;28;20038;-74
2022/04/05 14:03:35;;;;;;;4.57;0.82;;;;;;;;;;5062482;28;20039;-75
2022/04/05 14:06:00;;;;;;;9.85;1.10;;;;;;;;;;5080292;28;20206;-75
2022/04/05 14:08:26;;;;;;;7.13;1.23;;;;;;;;;;5081848;28;20071;-74
2022/04/05 14:10:52;;;;;;;9.32;1.40;;;;;;;;;;5098914;28;20016;-74
2022/04/05 14:13:20;;;;;;;9.57;1.48;;;;;;;;;;5081285;28;20016;-79
2022/04/05 14:15:46;;;;;;;5.03;1.02;;;;;;;;;;5080446;28;20054;-74
2022/04/05 14:18:11;;;;;;;4.03;0.90;;;;;;;;;;5079117;28;20025;-75
2022/04/05 14:20:37;;;;;;;6.85;0.95;;;;;;;;;;5066436;28;20063;-76
2022/04/05 14:23:02;;;;;;;4.97;0.90;;;;;;;;;;5073405;28;20156;-76
2022/04/05 14:25:28;;;;;;;7.97;0.93;;;;;;;;;;5078160;28;20024;-75
2022/04/05 14:27:53;;;;;;;10.30;0.77;;;;;;;;;;5061864;28;20055;-76
2022/04/05 14:30:19;;;;;;;4.90;1.27;;;;;;;;;;5083900;28;20107;-75
2022/04/05 14:32:44;;;;;;;8.27;1.02;;;;;;;;;;5088861;28;20029;-75
2022/04/05 14:35:10;;;;;;;7.55;1.00;;;;;;;;;;5083676;28;20018;-74
2022/04/05 14:37:35;;;;;;;7.38;0.90;;;;;;;;;;5081492;28;20016;-75